Time;durP1;ratioP1;P1;durP2;ratioP2;P2;SDS_P1;SDS_P2;PMS_P1;PMS_P2;Temp;Humidity;BMP_temperature;BMP_pressure;BME280_temperature;BME280_humidity;BME280_pressure;Samples;Min_cycle;Max_cycle;Signal;HPM_P1;HPM_P2
2020/12/21 00:00:34;;;;;;;74.43;18.40;;;6.70;99.90;;;;;;5053156;28;20207;-69
2020/12/21 00:03:01;;;;;;;78.75;20.20;;;6.70;99.90;;;;;;5053163;28;20205;-69
2020/12/21 00:05:30;;;;;;;82.47;19.38;;;6.70;99.90;;;;;;5053339;28;20235;-71
2020/12/21 00:08:00;;;;;;;77.18;19.17;;;6.70;99.90;;;;;;5053070;28;20253;-72
2020/12/21 00:10:29;;;;;;;82.10;22.33;;;6.60;99.90;;;;;;5052883;28;20213;-72
2020/12/21 00:12:56;;;;;;;80.28;19.83;;;6.60;99.90;;;;;;5053060;28;20207;-71
2020/12/21 00:15:23;;;;;;;81.65;20.23;;;6.60;99.90;;;;;;5054708;28;20266;-72
2020/12/21 00:17:49;;;;;;;80.07;20.10;;;6.60;99.90;;;;;;5057846;28;20235;-71
2020/12/21 00:20:17;;;;;;;79.32;19.40;;;6.60;99.90;;;;;;5052822;28;20220;-70
2020/12/21 00:22:43;;;;;;;77.75;20.42;;;6.60;99.90;;;;;;5053227;28;20211;-71
2020/12/21 00:25:09;;;;;;;81.35;20.63;;;6.60;99.90;;;;;;5053185;28;20230;-71
2020/12/21 00:27:36;;;;;;;81.97;20.27;;;6.60;99.90;;;;;;5052435;28;20247;-71
2020/12/21 00:30:02;;;;;;;78.53;19.42;;;6.60;99.90;;;;;;5052562;28;20240;-71
2020/12/21 00:32:29;;;;;;;77.63;19.90;;;6.60;99.90;;;;;;5052532;28;20218;-72
2020/12/21 00:34:55;;;;;;;79.07;21.25;;;6.60;99.90;;;;;;5052754;28;20229;-71
2020/12/21 00:37:22;;;;;;;77.63;20.40;;;6.60;99.90;;;;;;5052379;28;20226;-71
2020/12/21 00:39:49;;;;;;;81.85;19.98;;;6.60;99.90;;;;;;5052609;28;20620;-71
2020/12/21 00:42:16;;;;;;;77.90;19.00;;;6.60;99.90;;;;;;5052494;28;20218;-72
2020/12/21 00:44:42;;;;;;;78.50;18.52;;;6.60;99.90;;;;;;5052559;28;20226;-72
2020/12/21 00:47:08;;;;;;;79.45;19.35;;;6.60;99.90;;;;;;5052390;28;20248;-71
2020/12/21 00:49:35;;;;;;;81.80;20.55;;;6.60;99.90;;;;;;5052175;28;20696;-72
2020/12/21 00:52:01;;;;;;;77.70;19.10;;;6.60;99.90;;;;;;5052329;28;20209;-71
2020/12/21 00:54:29;;;;;;;78.57;19.67;;;6.50;99.90;;;;;;5052015;28;20237;-71
2020/12/21 00:56:55;;;;;;;80.85;19.30;;;6.50;99.90;;;;;;5051891;28;20709;-71
2020/12/21 00:59:21;;;;;;;75.25;18.85;;;6.50;99.90;;;;;;5051800;28;20587;-71
2020/12/21 01:01:48;;;;;;;80.68;20.05;;;6.40;99.90;;;;;;5052434;28;20373;-72
2020/12/21 01:04:14;;;;;;;77.15;18.23;;;6.30;99.90;;;;;;5051764;28;20584;-71
2020/12/21 01:06:41;;;;;;;78.85;19.58;;;6.30;99.90;;;;;;5051688;28;20305;-71
2020/12/21 01:09:10;;;;;;;75.70;18.95;;;6.20;99.90;;;;;;5051901;28;20228;-71
2020/12/21 01:11:38;;;;;;;72.32;17.58;;;6.20;99.90;;;;;;5051770;28;20693;-72
2020/12/21 01:14:04;;;;;;;74.32;16.60;;;6.20;99.90;;;;;;5052064;28;20257;-71
2020/12/21 01:16:30;;;;;;;75.30;17.90;;;6.10;99.90;;;;;;5051552;28;20263;-72
2020/12/21 01:18:57;;;;;;;73.85;16.58;;;6.20;99.90;;;;;;5051987;28;20252;-72
2020/12/21 01:21:27;;;;;;;74.55;17.40;;;6.20;99.90;;;;;;5051670;28;20256;-71
2020/12/21 01:23:55;;;;;;;75.30;18.10;;;6.10;99.90;;;;;;5051688;28;20226;-71
2020/12/21 01:26:21;;;;;;;76.63;18.05;;;6.10;99.90;;;;;;5051417;28;20209;-71
2020/12/21 01:28:50;;;;;;;74.45;18.15;;;6.10;99.90;;;;;;5051332;28;20256;-71
2020/12/21 01:31:17;;;;;;;75.13;17.25;;;6.10;99.90;;;;;;5051414;28;20214;-71
2020/12/21 01:33:43;;;;;;;80.78;18.85;;;6.10;99.90;;;;;;5051559;28;20717;-71
2020/12/21 01:36:10;;;;;;;75.82;17.55;;;6.00;99.90;;;;;;5051381;28;20600;-71
2020/12/21 01:38:36;;;;;;;74.05;16.83;;;6.00;99.90;;;;;;5051254;28;20209;-72
2020/12/21 01:41:03;;;;;;;73.78;17.38;;;6.00;99.90;;;;;;5051311;28;20201;-72
2020/12/21 01:43:29;;;;;;;77.68;19.50;;;6.00;99.90;;;;;;5051511;28;20231;-71
2020/12/21 01:45:56;;;;;;;74.15;17.35;;;6.00;99.90;;;;;;5051429;28;20673;-71
2020/12/21 01:48:23;;;;;;;73.28;17.67;;;6.00;99.90;;;;;;5051197;28;20244;-72
2020/12/21 01:50:49;;;;;;;76.05;18.63;;;6.00;99.90;;;;;;5051386;28;20209;-71
2020/12/21 01:53:16;;;;;;;75.32;17.77;;;6.00;99.90;;;;;;5051065;28;20217;-71
2020/12/21 01:55:43;;;;;;;74.15;16.75;;;6.00;99.90;;;;;;5051166;28;20556;-71
2020/12/21 01:58:09;;;;;;;71.82;16.42;;;6.00;99.90;;;;;;5051209;28;20262;-72
2020/12/21 02:00:36;;;;;;;74.63;17.65;;;6.00;99.90;;;;;;5051192;28;20206;-71
2020/12/21 02:03:08;;;;;;;75.00;17.40;;;5.90;99.90;;;;;;5051434;28;20220;-70
2020/12/21 02:05:36;;;;;;;78.32;17.98;;;5.90;99.90;;;;;;5050971;28;20237;-71
2020/12/21 02:08:02;;;;;;;76.05;17.75;;;5.90;99.90;;;;;;5050700;28;20202;-70
2020/12/21 02:10:29;;;;;;;73.82;16.88;;;5.80;99.90;;;;;;5051128;28;20232;-69
2020/12/21 02:12:56;;;;;;;76.13;17.30;;;5.70;99.90;;;;;;5051277;28;20209;-72
2020/12/21 02:15:22;;;;;;;75.82;18.77;;;5.60;99.90;;;;;;5054412;28;20237;-71
2020/12/21 02:17:48;;;;;;;74.22;17.95;;;5.50;99.90;;;;;;5055740;28;20228;-72
2020/12/21 02:20:16;;;;;;;74.13;17.00;;;5.40;99.90;;;;;;5050963;28;20209;-70
2020/12/21 02:22:43;;;;;;;73.75;16.95;;;5.40;99.90;;;;;;5048470;28;20300;-71
2020/12/21 02:25:09;;;;;;;75.53;18.10;;;5.30;99.90;;;;;;5051106;28;20319;-70
2020/12/21 02:27:35;;;;;;;75.53;18.50;;;5.20;99.90;;;;;;5050838;28;20233;-71
2020/12/21 02:30:02;;;;;;;74.68;18.15;;;5.20;99.90;;;;;;5051040;28;20252;-70
2020/12/21 02:32:28;;;;;;;75.22;17.08;;;5.10;99.90;;;;;;5050805;28;20250;-71
2020/12/21 02:34:54;;;;;;;77.93;18.75;;;5.10;99.90;;;;;;5050855;28;20228;-71
2020/12/21 02:37:21;;;;;;;75.35;17.98;;;5.00;99.90;;;;;;5050571;28;20712;-71
2020/12/21 02:39:48;;;;;;;72.72;15.27;;;5.00;99.90;;;;;;5052387;28;20263;-71
2020/12/21 02:42:14;;;;;;;78.00;17.92;;;4.90;99.90;;;;;;5055275;28;20245;-71
2020/12/21 02:44:41;;;;;;;76.45;16.17;;;4.80;99.90;;;;;;5054630;28;20261;-71
2020/12/21 02:47:07;;;;;;;72.90;17.40;;;4.80;99.90;;;;;;5054516;28;20214;-71
2020/12/21 02:49:33;;;;;;;74.60;16.05;;;4.70;99.90;;;;;;5054692;28;20201;-71
2020/12/21 02:52:00;;;;;;;74.95;17.30;;;4.70;99.90;;;;;;5054575;28;20584;-71
2020/12/21 02:54:26;;;;;;;72.57;16.08;;;4.60;99.90;;;;;;5054531;28;20236;-71
2020/12/21 02:56:54;;;;;;;73.30;16.17;;;4.60;99.90;;;;;;5054139;28;20765;-71
2020/12/21 02:59:20;;;;;;;76.82;16.13;;;4.60;99.90;;;;;;5054228;28;20300;-71
2020/12/21 03:01:47;;;;;;;73.28;15.30;;;4.50;99.90;;;;;;5054651;28;20220;-71
2020/12/21 03:04:14;;;;;;;74.55;16.83;;;4.50;99.90;;;;;;5054113;28;20264;-71
2020/12/21 03:06:40;;;;;;;73.72;16.95;;;4.50;99.90;;;;;;5053972;28;20210;-70
2020/12/21 03:09:07;;;;;;;74.20;15.55;;;4.50;99.90;;;;;;5054324;28;20300;-71
2020/12/21 03:11:33;;;;;;;73.93;17.20;;;4.40;99.90;;;;;;5054391;28;20347;-71
2020/12/21 03:14:00;;;;;;;73.47;16.40;;;4.40;99.90;;;;;;5053917;28;20225;-71
2020/12/21 03:16:26;;;;;;;75.63;15.98;;;4.40;99.90;;;;;;5054462;28;20321;-70
2020/12/21 03:18:53;;;;;;;70.43;15.40;;;4.40;99.90;;;;;;5054054;28;20241;-72
2020/12/21 03:21:19;;;;;;;74.93;17.25;;;4.40;99.90;;;;;;5054140;28;20212;-71
2020/12/21 03:23:45;;;;;;;73.22;17.00;;;4.40;99.90;;;;;;5054173;28;20229;-71
2020/12/21 03:26:12;;;;;;;74.32;16.23;;;4.40;99.90;;;;;;5054083;28;20267;-71
2020/12/21 03:28:38;;;;;;;72.13;14.68;;;4.40;99.90;;;;;;5053633;28;20244;-71
2020/12/21 03:31:06;;;;;;;74.75;16.70;;;4.30;99.90;;;;;;5053798;28;20217;-71
2020/12/21 03:33:32;;;;;;;74.68;16.75;;;4.30;99.90;;;;;;5053954;28;20264;-71
2020/12/21 03:35:58;;;;;;;72.60;16.95;;;4.30;99.90;;;;;;5053782;28;20209;-71
2020/12/21 03:38:24;;;;;;;75.72;16.75;;;4.30;99.90;;;;;;5054030;28;20691;-72
2020/12/21 03:40:51;;;;;;;71.93;16.05;;;4.30;99.90;;;;;;5053893;28;20685;-69
2020/12/21 03:43:19;;;;;;;72.20;15.30;;;4.20;99.90;;;;;;5053701;28;20688;-72
2020/12/21 03:45:46;;;;;;;74.97;16.80;;;4.20;99.90;;;;;;5053817;28;20245;-70
2020/12/21 03:48:13;;;;;;;75.97;15.77;;;4.20;99.90;;;;;;5053792;28;20209;-72
2020/12/21 03:50:40;;;;;;;75.85;17.75;;;4.20;99.90;;;;;;5053416;28;20622;-71
2020/12/21 03:53:06;;;;;;;74.22;16.40;;;4.20;99.90;;;;;;5053510;28;20216;-71
2020/12/21 03:55:33;;;;;;;73.82;16.55;;;4.10;99.90;;;;;;5053242;28;20257;-70
2020/12/21 03:57:59;;;;;;;73.20;16.85;;;4.10;99.90;;;;;;5053323;28;20316;-72
2020/12/21 04:00:26;;;;;;;73.68;16.45;;;4.10;99.90;;;;;;5053563;28;20205;-71
2020/12/21 04:02:52;;;;;;;76.85;16.70;;;4.00;99.90;;;;;;5053331;28;20210;-71
2020/12/21 04:05:19;;;;;;;76.68;16.92;;;4.00;99.90;;;;;;5053064;28;20237;-71
2020/12/21 04:07:45;;;;;;;74.32;17.50;;;4.00;99.90;;;;;;5052963;28;20228;-71
2020/12/21 04:10:12;;;;;;;77.85;18.67;;;4.00;99.90;;;;;;5052915;28;20583;-70
2020/12/21 04:12:38;;;;;;;78.53;18.35;;;4.00;99.90;;;;;;5053304;28;20687;-71
2020/12/21 04:15:05;;;;;;;77.20;17.02;;;3.90;99.90;;;;;;5058767;28;20308;-71
2020/12/21 04:17:32;;;;;;;75.18;17.25;;;3.90;99.90;;;;;;5057233;28;20570;-71
2020/12/21 04:19:58;;;;;;;72.35;17.05;;;3.90;99.90;;;;;;5052877;28;20201;-70
2020/12/21 04:22:25;;;;;;;75.28;16.92;;;3.90;99.90;;;;;;5052835;28;20237;-71
2020/12/21 04:24:52;;;;;;;74.35;16.70;;;3.80;99.90;;;;;;5052697;28;20280;-71
2020/12/21 04:27:18;;;;;;;74.43;16.55;;;3.80;99.90;;;;;;5052594;28;20297;-70
2020/12/21 04:29:45;;;;;;;78.40;18.75;;;3.80;99.90;;;;;;5052759;28;20685;-71
2020/12/21 04:32:11;;;;;;;77.90;17.48;;;3.80;99.90;;;;;;5053014;28;20206;-71
2020/12/21 04:34:37;;;;;;;76.07;17.30;;;3.80;99.90;;;;;;5052541;28;20232;-71
2020/12/21 04:37:04;;;;;;;75.63;16.42;;;3.80;99.90;;;;;;5052365;28;20574;-70
2020/12/21 04:39:32;;;;;;;79.43;18.05;;;3.80;99.90;;;;;;5052214;28;20210;-71
2020/12/21 04:41:59;;;;;;;75.07;17.10;;;3.80;99.90;;;;;;5052710;28;20206;-72
2020/12/21 04:44:27;;;;;;;77.70;18.08;;;3.80;99.90;;;;;;5052531;28;20230;-71
2020/12/21 04:46:55;;;;;;;79.65;17.90;;;3.80;99.90;;;;;;5052051;28;20244;-70
2020/12/21 04:49:21;;;;;;;75.68;17.48;;;3.80;99.90;;;;;;5052706;28;20210;-71
2020/12/21 04:51:50;;;;;;;76.55;17.55;;;3.80;99.90;;;;;;5052175;28;20239;-71
2020/12/21 04:54:17;;;;;;;72.47;16.67;;;3.80;99.90;;;;;;5052112;28;20712;-71
2020/12/21 04:56:44;;;;;;;72.88;16.35;;;3.80;99.90;;;;;;5052141;28;20226;-68
2020/12/21 04:59:12;;;;;;;74.75;15.75;;;3.80;99.90;;;;;;5052290;28;20241;-71
2020/12/21 05:01:38;;;;;;;79.28;16.10;;;3.80;99.90;;;;;;5051556;28;20209;-71
2020/12/21 05:04:05;;;;;;;81.57;18.02;;;3.80;99.90;;;;;;5051761;28;20610;-71
2020/12/21 05:06:31;;;;;;;78.50;18.23;;;3.90;99.90;;;;;;5051197;28;20197;-71
2020/12/21 05:09:04;;;;;;;80.45;19.05;;;3.90;99.90;;;;;;5051055;28;20216;-70
2020/12/21 05:11:30;;;;;;;79.32;20.88;;;3.90;99.90;;;;;;5052117;28;20680;-71
2020/12/21 05:14:08;;;;;;;78.63;18.90;;;4.00;99.90;;;;;;5051863;28;20316;-71
2020/12/21 05:16:35;;;;;;;80.50;18.70;;;4.00;99.90;;;;;;5051970;28;20221;-71
2020/12/21 05:19:01;;;;;;;79.00;19.35;;;4.10;99.90;;;;;;5050863;28;20294;-71
2020/12/21 05:21:29;;;;;;;78.15;17.95;;;4.10;99.90;;;;;;5051056;28;20708;-71
2020/12/21 05:23:56;;;;;;;78.97;16.83;;;4.20;99.90;;;;;;5051779;28;20605;-71
2020/12/21 05:26:28;;;;;;;79.32;19.83;;;4.20;99.90;;;;;;5050942;28;20201;-70
2020/12/21 05:28:54;;;;;;;83.70;22.08;;;4.30;99.90;;;;;;5050569;28;20260;-70
2020/12/21 05:31:21;;;;;;;82.15;21.17;;;4.30;99.90;;;;;;5050488;28;20677;-71
2020/12/21 05:33:48;;;;;;;80.88;19.60;;;4.30;99.90;;;;;;5051108;28;20226;-71
2020/12/21 05:36:16;;;;;;;80.15;17.45;;;4.30;99.90;;;;;;5050874;28;20240;-70
2020/12/21 05:38:44;;;;;;;83.00;19.98;;;4.40;99.90;;;;;;5050789;28;20252;-72
2020/12/21 05:41:11;;;;;;;79.45;20.08;;;4.40;99.90;;;;;;5051230;28;20213;-71
2020/12/21 05:43:38;;;;;;;80.47;19.50;;;4.40;99.90;;;;;;5051452;28;20308;-71
2020/12/21 05:46:06;;;;;;;79.88;19.35;;;4.40;99.90;;;;;;5051146;28;20208;-70
2020/12/21 05:48:35;;;;;;;82.90;19.45;;;4.40;99.90;;;;;;5051405;28;20235;-71
2020/12/21 05:51:03;;;;;;;81.40;18.17;;;4.50;99.90;;;;;;5051595;28;20216;-71
2020/12/21 05:53:41;;;;;;;85.93;20.02;;;4.50;99.90;;;;;;5051519;28;20206;-71
2020/12/21 05:56:08;;;;;;;78.97;18.98;;;4.50;99.90;;;;;;5051203;28;20217;-71
2020/12/21 05:58:37;;;;;;;81.82;18.60;;;4.50;99.90;;;;;;5050965;28;20202;-70
2020/12/21 06:01:06;;;;;;;84.22;20.33;;;4.50;99.90;;;;;;5051240;28;20665;-71
2020/12/21 06:03:45;;;;;;;80.95;19.98;;;4.50;99.90;;;;;;5050777;28;20230;-71
2020/12/21 06:06:16;;;;;;;80.63;18.58;;;4.50;99.90;;;;;;5051083;28;20205;-71
2020/12/21 06:08:44;;;;;;;82.05;18.55;;;4.50;99.90;;;;;;5051061;28;20404;-72
2020/12/21 06:11:19;;;;;;;78.07;18.17;;;4.50;99.90;;;;;;5054316;28;20205;-71
2020/12/21 06:13:56;;;;;;;79.20;18.42;;;4.60;99.90;;;;;;5059889;28;20268;-71
2020/12/21 06:16:24;;;;;;;81.07;19.33;;;4.60;99.90;;;;;;5079856;22;20236;-71
2020/12/21 06:19:05;;;;;;;80.32;18.80;;;4.70;99.90;;;;;;5054899;28;20208;-71
2020/12/21 06:21:33;;;;;;;80.10;18.08;;;4.70;99.90;;;;;;5055065;28;20209;-71
2020/12/21 06:24:00;;;;;;;78.57;17.77;;;4.70;99.90;;;;;;5055152;28;20205;-70
2020/12/21 06:26:37;;;;;;;81.55;20.05;;;4.70;99.90;;;;;;5055037;28;20225;-71
2020/12/21 06:29:07;;;;;;;76.10;17.40;;;4.60;99.90;;;;;;5054808;28;20350;-70
2020/12/21 06:31:42;;;;;;;76.55;17.88;;;4.60;99.90;;;;;;5054895;28;20246;-71
2020/12/21 06:34:12;;;;;;;78.43;17.35;;;4.60;99.90;;;;;;5054896;28;20263;-71
2020/12/21 06:36:38;;;;;;;80.88;17.88;;;4.60;99.90;;;;;;5054934;28;20274;-72
2020/12/21 06:39:06;;;;;;;76.32;18.23;;;4.60;99.90;;;;;;5054755;28;20263;-72
2020/12/21 06:41:33;;;;;;;84.80;20.38;;;4.60;99.90;;;;;;5054845;28;20218;-72
2020/12/21 06:44:01;;;;;;;81.88;18.65;;;4.60;99.90;;;;;;5054755;28;20217;-71
2020/12/21 06:46:29;;;;;;;78.63;18.77;;;4.60;99.90;;;;;;5054350;28;20264;-72
2020/12/21 06:49:10;;;;;;;77.57;19.45;;;4.50;99.90;;;;;;5054616;28;20617;-72
2020/12/21 06:51:40;;;;;;;75.85;16.17;;;4.50;99.90;;;;;;5054773;28;20220;-70
2020/12/21 06:54:06;;;;;;;76.97;18.20;;;4.50;99.90;;;;;;5054956;28;20206;-72
2020/12/21 06:56:33;;;;;;;76.95;18.35;;;4.40;99.90;;;;;;5054216;28;20229;-71
2020/12/21 06:59:01;;;;;;;86.43;19.13;;;4.40;99.90;;;;;;5054105;28;20205;-72
2020/12/21 07:01:28;;;;;;;79.22;20.67;;;4.40;99.90;;;;;;5054360;28;20205;-71
2020/12/21 07:03:55;;;;;;;77.55;17.52;;;4.40;99.90;;;;;;5054068;28;20737;-70
2020/12/21 07:06:22;;;;;;;79.60;18.25;;;4.30;99.90;;;;;;5054385;28;20253;-72
2020/12/21 07:08:49;;;;;;;79.95;17.98;;;4.30;99.90;;;;;;5053988;28;20292;-71
2020/12/21 07:11:19;;;;;;;81.47;18.50;;;4.30;99.90;;;;;;5054187;28;20252;-71
2020/12/21 07:13:47;;;;;;;76.78;17.85;;;4.30;99.90;;;;;;5054316;28;20238;-72
2020/12/21 07:16:15;;;;;;;79.25;19.80;;;4.30;99.90;;;;;;5053726;28;20236;-72
2020/12/21 07:18:42;;;;;;;80.78;19.40;;;4.30;99.90;;;;;;5053887;28;20210;-72
2020/12/21 07:21:09;;;;;;;81.13;19.48;;;4.20;99.90;;;;;;5054103;28;20220;-71
2020/12/21 07:23:37;;;;;;;82.88;19.60;;;4.20;99.90;;;;;;5053899;28;20702;-70
2020/12/21 07:26:04;;;;;;;87.03;18.90;;;4.20;99.90;;;;;;5052816;28;20264;-71
2020/12/21 07:28:31;;;;;;;88.55;20.00;;;4.20;99.90;;;;;;5053599;28;20202;-72
2020/12/21 07:31:08;;;;;;;89.63;21.70;;;4.20;99.90;;;;;;5053690;28;20213;-71
2020/12/21 07:33:36;;;;;;;86.57;21.75;;;4.20;99.90;;;;;;5053742;28;20213;-71
2020/12/21 07:36:03;;;;;;;90.60;21.48;;;4.20;99.90;;;;;;5052607;28;20233;-72
2020/12/21 07:38:30;;;;;;;90.72;19.88;;;4.20;99.90;;;;;;5053187;28;20286;-71
2020/12/21 07:40:58;;;;;;;86.72;20.10;;;4.20;99.90;;;;;;5053516;28;20763;-69
2020/12/21 07:43:30;;;;;;;88.63;19.80;;;4.20;99.90;;;;;;5053644;28;20201;-72
2020/12/21 07:46:03;;;;;;;84.35;18.30;;;4.20;99.90;;;;;;5053476;28;20226;-72
2020/12/21 07:48:32;;;;;;;85.47;18.98;;;4.20;99.90;;;;;;5053457;28;20212;-71
2020/12/21 07:51:02;;;;;;;86.95;19.17;;;4.20;99.90;;;;;;5053310;28;20630;-71
2020/12/21 07:53:35;;;;;;;84.68;18.92;;;4.20;99.90;;;;;;5053713;28;20232;-72
2020/12/21 07:56:02;;;;;;;81.18;19.35;;;4.20;99.90;;;;;;5053288;28;20232;-72
2020/12/21 07:58:28;;;;;;;83.63;19.92;;;4.30;99.90;;;;;;5053040;28;20248;-71
2020/12/21 08:00:56;;;;;;;86.10;20.73;;;4.30;99.90;;;;;;5053261;28;20676;-72
2020/12/21 08:03:24;;;;;;;82.07;19.33;;;4.30;99.90;;;;;;5053182;28;20286;-72
2020/12/21 08:05:51;;;;;;;82.50;20.05;;;4.40;99.90;;;;;;5053349;28;20240;-72
2020/12/21 08:08:22;;;;;;;81.75;19.13;;;4.40;99.90;;;;;;5053037;28;20205;-72
2020/12/21 08:10:56;;;;;;;85.90;20.10;;;4.40;99.90;;;;;;5053290;28;20217;-71
2020/12/21 08:13:23;;;;;;;82.43;20.00;;;4.50;99.90;;;;;;5053169;28;20205;-72
2020/12/21 08:15:49;;;;;;;83.88;17.85;;;4.50;99.90;;;;;;5052838;28;20237;-72
2020/12/21 08:18:16;;;;;;;80.57;18.60;;;4.50;99.90;;;;;;5052408;28;20244;-72
2020/12/21 08:20:49;;;;;;;85.50;19.13;;;4.60;99.90;;;;;;5053159;28;20677;-72
2020/12/21 08:23:22;;;;;;;90.63;21.90;;;4.60;99.90;;;;;;5053085;28;20255;-71
2020/12/21 08:25:48;;;;;;;87.53;21.33;;;4.70;99.90;;;;;;5052763;28;20231;-72
2020/12/21 08:28:28;;;;;;;81.80;20.23;;;4.70;99.90;;;;;;5053179;28;20456;-70
2020/12/21 08:31:05;;;;;;;81.72;18.90;;;4.80;99.90;;;;;;5052849;28;20220;-72
2020/12/21 08:33:32;;;;;;;83.57;20.92;;;4.90;99.90;;;;;;5052891;28;20355;-72
2020/12/21 08:36:16;;;;;;;81.88;20.60;;;5.00;99.90;;;;;;5052288;28;20237;-72
2020/12/21 08:38:42;;;;;;;82.25;18.38;;;5.10;99.90;;;;;;5051879;28;20258;-72
2020/12/21 08:41:09;;;;;;;82.28;19.38;;;5.10;99.90;;;;;;5052189;28;20308;-72
2020/12/21 08:43:36;;;;;;;82.00;19.13;;;5.20;99.90;;;;;;5052685;28;20212;-72
2020/12/21 08:46:06;;;;;;;81.13;17.52;;;5.20;99.90;;;;;;5052203;28;20237;-72
2020/12/21 08:48:33;;;;;;;81.30;17.85;;;5.30;99.90;;;;;;5052127;28;20206;-72
2020/12/21 08:50:59;;;;;;;77.50;18.85;;;5.40;99.90;;;;;;5052326;28;20628;-73
2020/12/21 08:53:25;;;;;;;76.60;16.67;;;5.40;99.90;;;;;;5052195;28;20703;-72
2020/12/21 08:55:52;;;;;;;82.82;17.38;;;5.50;99.90;;;;;;5052474;28;20316;-71
2020/12/21 08:58:18;;;;;;;82.95;18.13;;;5.50;99.90;;;;;;5051961;28;20606;-72
2020/12/21 09:00:45;;;;;;;78.40;18.40;;;5.60;99.90;;;;;;5052363;28;20557;-72
2020/12/21 09:03:11;;;;;;;76.82;17.63;;;5.60;99.90;;;;;;5052142;28;20297;-72
2020/12/21 09:05:38;;;;;;;80.28;17.90;;;5.60;99.90;;;;;;5052117;28;20236;-72
2020/12/21 09:08:05;;;;;;;79.43;18.23;;;5.60;99.90;;;;;;5051656;28;20344;-71
2020/12/21 09:10:31;;;;;;;77.15;18.10;;;5.70;99.90;;;;;;5052265;28;20208;-72
2020/12/21 09:12:57;;;;;;;73.20;16.95;;;5.70;99.90;;;;;;5052026;28;20210;-73
2020/12/21 09:15:23;;;;;;;72.97;16.60;;;5.70;99.90;;;;;;5051824;28;20728;-72
2020/12/21 09:17:50;;;;;;;75.60;17.20;;;5.70;99.90;;;;;;5051710;28;20236;-72
2020/12/21 09:20:17;;;;;;;74.80;15.77;;;5.80;99.90;;;;;;5051730;28;20202;-72
2020/12/21 09:22:43;;;;;;;74.25;16.48;;;5.80;99.90;;;;;;5051777;28;20724;-73
2020/12/21 09:25:10;;;;;;;75.30;16.85;;;5.90;99.90;;;;;;5051554;28;20237;-72
2020/12/21 09:27:37;;;;;;;75.80;17.65;;;5.90;99.90;;;;;;5051527;28;20669;-73
2020/12/21 09:30:03;;;;;;;73.50;17.35;;;5.90;99.90;;;;;;5051760;28;20293;-73
2020/12/21 09:32:30;;;;;;;75.85;16.70;;;6.00;99.90;;;;;;5051829;28;20575;-72
2020/12/21 09:34:57;;;;;;;77.10;16.65;;;6.00;99.90;;;;;;5051456;28;20231;-72
2020/12/21 09:37:24;;;;;;;76.63;17.35;;;6.00;99.90;;;;;;5051082;28;20226;-71
2020/12/21 09:39:50;;;;;;;77.13;16.98;;;6.10;99.90;;;;;;5051733;28;20211;-72
2020/12/21 09:42:16;;;;;;;76.55;18.55;;;6.10;99.90;;;;;;5051341;28;20677;-72
2020/12/21 09:44:43;;;;;;;74.80;17.80;;;6.20;99.90;;;;;;5051406;28;20209;-72
2020/12/21 09:47:09;;;;;;;73.75;16.50;;;6.20;99.90;;;;;;5051384;28;20237;-71
2020/12/21 09:49:35;;;;;;;72.45;15.95;;;6.20;99.90;;;;;;5050867;28;20580;-72
2020/12/21 09:52:02;;;;;;;73.93;16.60;;;6.20;99.90;;;;;;5051218;28;20205;-71
2020/12/21 09:54:30;;;;;;;76.10;17.17;;;6.20;99.90;;;;;;5051710;28;20311;-72
2020/12/21 09:56:56;;;;;;;75.47;16.42;;;6.20;99.90;;;;;;5051094;28;20224;-71
2020/12/21 09:59:23;;;;;;;74.30;16.48;;;6.20;99.90;;;;;;5051183;28;20203;-72
2020/12/21 10:01:50;;;;;;;74.18;17.05;;;6.30;99.90;;;;;;5050563;28;20691;-70
2020/12/21 10:04:16;;;;;;;74.95;17.58;;;6.40;99.90;;;;;;5051065;28;20206;-70
2020/12/21 10:06:47;;;;;;;72.28;16.52;;;6.50;99.90;;;;;;5051455;28;20225;-72
2020/12/21 10:09:15;;;;;;;77.47;17.95;;;6.60;99.90;;;;;;5051024;28;20209;-72
2020/12/21 10:11:41;;;;;;;74.28;17.83;;;6.70;99.90;;;;;;5051454;28;20202;-72
2020/12/21 10:14:07;;;;;;;77.82;16.55;;;6.70;99.90;;;;;;5051146;28;20209;-72
2020/12/21 10:16:34;;;;;;;73.28;15.60;;;6.80;99.90;;;;;;5051016;28;20560;-72
2020/12/21 10:19:00;;;;;;;72.95;16.95;;;6.80;99.90;;;;;;5050659;28;20211;-72
2020/12/21 10:21:26;;;;;;;75.50;18.20;;;6.90;99.90;;;;;;5051136;28;20243;-72
2020/12/21 10:23:53;;;;;;;75.45;17.25;;;7.10;99.90;;;;;;5051486;28;20233;-72
2020/12/21 10:26:20;;;;;;;75.53;18.50;;;7.20;99.90;;;;;;5051186;28;20308;-72
2020/12/21 10:28:46;;;;;;;73.07;16.40;;;7.30;99.90;;;;;;5050870;28;20202;-71
2020/12/21 10:31:14;;;;;;;75.07;16.20;;;7.30;99.90;;;;;;5050883;28;20456;-70
2020/12/21 10:33:40;;;;;;;73.45;16.23;;;7.30;99.90;;;;;;5050902;28;20203;-72
2020/12/21 10:36:07;;;;;;;76.88;18.05;;;7.30;99.90;;;;;;5051005;28;20229;-71
2020/12/21 10:38:33;;;;;;;74.68;16.52;;;7.30;99.90;;;;;;5050632;28;20707;-71
2020/12/21 10:40:59;;;;;;;70.13;15.23;;;7.30;99.90;;;;;;5050928;28;20290;-69
2020/12/21 10:43:26;;;;;;;72.05;16.05;;;7.30;99.90;;;;;;5051000;28;20208;-69
2020/12/21 10:45:53;;;;;;;67.72;13.65;;;7.20;99.90;;;;;;5050700;28;20284;-70
2020/12/21 10:48:19;;;;;;;71.03;13.40;;;7.20;99.90;;;;;;5050476;28;20230;-71
2020/12/21 10:50:46;;;;;;;69.32;14.55;;;7.20;99.90;;;;;;5051080;28;20212;-70
2020/12/21 10:53:13;;;;;;;67.28;13.93;;;7.20;99.90;;;;;;5050942;28;20206;-70
2020/12/21 10:55:39;;;;;;;71.97;14.63;;;7.20;99.90;;;;;;5050802;28;20229;-71
2020/12/21 10:58:06;;;;;;;68.78;14.02;;;7.20;99.90;;;;;;5050415;28;20317;-71
2020/12/21 11:00:33;;;;;;;69.63;14.35;;;7.20;99.90;;;;;;5052015;28;20210;-71
2020/12/21 11:02:59;;;;;;;71.25;14.30;;;7.30;99.90;;;;;;5054621;28;20214;-71
2020/12/21 11:05:25;;;;;;;72.80;15.20;;;7.30;99.90;;;;;;5054306;28;20237;-71
2020/12/21 11:07:52;;;;;;;66.05;12.35;;;7.30;99.90;;;;;;5054056;28;20220;-71
2020/12/21 11:10:18;;;;;;;67.37;13.17;;;7.40;99.90;;;;;;5054367;28;20590;-70
2020/12/21 11:12:44;;;;;;;70.33;14.50;;;7.40;99.90;;;;;;5054279;28;20445;-70
2020/12/21 11:15:10;;;;;;;67.80;13.00;;;7.50;99.90;;;;;;5053792;28;20479;-71
2020/12/21 11:17:38;;;;;;;69.27;13.80;;;7.50;99.90;;;;;;5054029;28;20514;-70
2020/12/21 11:20:04;;;;;;;70.93;15.50;;;7.50;99.90;;;;;;5054226;28;20536;-70
2020/12/21 11:22:31;;;;;;;74.00;16.30;;;7.60;99.90;;;;;;5054160;28;20449;-70
2020/12/21 11:24:57;;;;;;;72.50;16.50;;;7.70;99.90;;;;;;5053793;28;20480;-70
2020/12/21 11:27:24;;;;;;;74.15;16.80;;;7.70;99.90;;;;;;5053885;28;20445;-70
2020/12/21 11:29:50;;;;;;;68.77;14.80;;;7.80;99.90;;;;;;5053684;28;20245;-72
2020/12/21 11:32:16;;;;;;;69.57;15.13;;;7.90;99.90;;;;;;5054001;28;20524;-71
2020/12/21 11:34:43;;;;;;;67.10;13.47;;;8.10;99.90;;;;;;5053714;28;20671;-71
2020/12/21 11:37:10;;;;;;;71.00;12.90;;;8.20;99.90;;;;;;5053967;28;20582;-71
2020/12/21 11:39:36;;;;;;;65.47;12.50;;;8.20;99.90;;;;;;5053326;28;20453;-70
2020/12/21 11:42:07;;;;;;;66.13;12.60;;;8.30;99.90;;;;;;5053572;28;20453;-71
2020/12/21 11:44:33;;;;;;;65.57;11.93;;;8.30;99.90;;;;;;5053718;28;20477;-70
2020/12/21 11:46:59;;;;;;;67.37;12.63;;;8.20;99.90;;;;;;5053466;28;20497;-70
2020/12/21 11:49:26;;;;;;;67.80;12.70;;;8.20;99.90;;;;;;5053163;28;20448;-70
2020/12/21 11:51:55;;;;;;;66.10;11.47;;;8.10;99.90;;;;;;5053348;28;20573;-70
2020/12/21 11:54:22;;;;;;;64.17;10.43;;;8.10;99.90;;;;;;5053395;28;20455;-69
2020/12/21 11:56:48;;;;;;;63.90;10.63;;;8.00;99.90;;;;;;5053127;28;20475;-70
2020/12/21 11:59:14;;;;;;;66.33;11.27;;;8.00;99.90;;;;;;5053245;28;20519;-70
2020/12/21 12:01:41;;;;;;;70.60;11.00;;;7.90;99.90;;;;;;5053304;28;20959;-71
2020/12/21 12:04:07;;;;;;;66.30;11.77;;;7.90;99.90;;;;;;5053354;28;20828;-70
2020/12/21 12:06:33;;;;;;;65.57;11.63;;;7.90;99.50;;;;;;5053274;28;20466;-71
2020/12/21 12:09:00;;;;;;;66.88;11.35;;;7.90;99.10;;;;;;5052816;28;20449;-70
2020/12/21 12:11:27;;;;;;;80.63;18.33;;;8.00;96.90;;;;;;5052814;28;20214;-71
2020/12/21 12:13:53;;;;;;;65.87;11.80;;;8.10;93.40;;;;;;5053159;28;20546;-72
2020/12/21 12:16:24;;;;;;;66.50;9.13;;;8.20;90.90;;;;;;5052922;28;20477;-71
2020/12/21 12:18:50;;;;;;;63.17;9.07;;;8.30;82.40;;;;;;5052631;28;20904;-71
2020/12/21 12:21:21;;;;;;;64.70;9.20;;;8.40;56.20;;;;;;5053027;28;20508;-70
2020/12/21 12:23:49;;;;;;;64.23;9.33;;;8.60;52.70;;;;;;5052812;28;20871;-72
2020/12/21 12:26:17;;;;;;;61.20;7.40;;;8.70;38.40;;;;;;5052575;28;20481;-71
2020/12/21 12:28:43;;;;;;;62.13;7.40;;;8.80;23.00;;;;;;5052967;28;20489;-70
2020/12/21 12:31:14;;;;;;;61.93;7.80;;;8.80;11.20;;;;;;5052466;28;20448;-71
2020/12/21 12:33:41;;;;;;;62.50;7.33;;;8.70;10.40;;;;;;5052633;28;20451;-70
2020/12/21 12:36:07;;;;;;;60.40;7.40;;;8.60;7.70;;;;;;5052447;28;20466;-71
2020/12/21 12:38:33;;;;;;;64.33;8.70;;;8.60;6.60;;;;;;5052061;28;20898;-72